Derwood, Maryland
Current Conditions -  °F | °C
As of 10:35 AM on Thursday 18 Dec 2014 (Local Time) from KGAI Reporting Station
Overcast Overcast  
Wind Chill: 24°   Ceiling: 3500
Heat Index: 34°   Visibility: 10mi
Dew Point: 19°   Wind: 15mph
Humidity: 56%   Direction: 290°WNW
Pressure: 30.2"   Gusts: NA
Location:  39.12°N, 77.16°W
Report Text: KGAI 181535Z 29013KT 10SM OVC035 01/M07 A3020 RMK AO1
Loading
Personal Weather Stations






























Interactive Weather Map New forecast layout! Learn more

10-Day Weather Forecast

Advertisements
Track Severe Weather on mobile